createdAt,value
2022-09-12T00:02:13.857Z,16.79
2022-09-12T00:05:16.290Z,16.77
2022-09-12T00:08:18.477Z,16.75
2022-09-12T00:11:21.344Z,16.73
2022-09-12T00:14:23.465Z,16.71
2022-09-12T00:17:25.891Z,16.68
2022-09-12T00:20:27.858Z,16.64
2022-09-12T00:23:30.455Z,16.65
2022-09-12T00:26:33.469Z,16.62
2022-09-12T00:29:35.921Z,16.62
2022-09-12T00:32:38.044Z,16.60
2022-09-12T00:35:44.303Z,16.56
2022-09-12T00:38:46.631Z,16.52
2022-09-12T00:41:49.127Z,16.45
2022-09-12T00:44:52.350Z,16.48
2022-09-12T00:47:55.282Z,16.47
2022-09-12T00:50:58.044Z,16.44
2022-09-12T00:54:02.246Z,16.43
2022-09-12T00:57:06.709Z,16.38
2022-09-12T01:00:15.094Z,16.41
2022-09-12T01:03:19.251Z,16.40
2022-09-12T01:06:23.885Z,16.37
2022-09-12T01:09:26.429Z,16.39
2022-09-12T01:12:29.559Z,16.40
2022-09-12T01:15:31.653Z,16.39
2022-09-12T01:18:53.781Z,16.36
2022-09-12T01:22:14.615Z,16.34
2022-09-12T01:25:25.953Z,16.33
2022-09-12T01:28:28.024Z,16.23
2022-09-12T01:31:49.223Z,16.33
2022-09-12T01:34:58.119Z,16.32
2022-09-12T01:38:11.916Z,16.25
2022-09-12T01:41:32.704Z,16.23
2022-09-12T01:44:41.192Z,16.23
2022-09-12T01:47:46.806Z,16.21
2022-09-12T01:50:56.518Z,16.21
2022-09-12T01:54:06.954Z,16.21
2022-09-12T01:57:12.972Z,16.22
2022-09-12T02:00:15.156Z,16.21
2022-09-12T02:03:20.542Z,16.20
2022-09-12T02:06:26.193Z,16.19
2022-09-12T02:09:33.745Z,16.18
2022-09-12T02:12:48.773Z,16.17
2022-09-12T02:15:56.766Z,16.13
2022-09-12T02:19:02.318Z,16.14
2022-09-12T02:22:04.976Z,16.14
2022-09-12T02:25:08.037Z,16.15
2022-09-12T02:28:24.259Z,16.14
2022-09-12T02:31:29.031Z,16.15
2022-09-12T02:34:49.745Z,16.11
2022-09-12T02:37:57.629Z,16.10
2022-09-12T02:40:59.955Z,16.07
2022-09-12T02:44:02.119Z,16.03
2022-09-12T02:47:07.549Z,16.00
2022-09-12T02:50:10.167Z,15.99
2022-09-12T02:53:12.535Z,15.97
2022-09-12T02:56:18.361Z,15.97
2022-09-12T02:59:21.907Z,15.99
2022-09-12T03:02:30.447Z,15.99
2022-09-12T03:05:34.947Z,15.97
2022-09-12T03:08:40.392Z,15.98
2022-09-12T03:11:54.823Z,15.96
2022-09-12T03:15:02.787Z,15.96
2022-09-12T03:18:06.298Z,15.93
2022-09-12T03:21:26.920Z,15.92
2022-09-12T03:24:35.343Z,15.89
2022-09-12T03:27:41.081Z,15.88
2022-09-12T03:30:45.191Z,15.87
2022-09-12T03:33:50.109Z,15.89
2022-09-12T03:36:57.331Z,15.88
2022-09-12T03:39:59.307Z,15.88
2022-09-12T03:43:01.861Z,15.88
2022-09-12T03:46:04.033Z,15.87
2022-09-12T03:49:06.374Z,15.87
2022-09-12T03:52:08.337Z,15.88
2022-09-12T03:55:10.984Z,15.88
2022-09-12T03:58:12.986Z,15.88
2022-09-12T04:01:19.553Z,15.85
2022-09-12T04:04:21.855Z,15.83
2022-09-12T04:07:24.042Z,15.82
2022-09-12T04:10:26.449Z,15.77
2022-09-12T04:13:28.459Z,15.76
2022-09-12T04:16:30.980Z,15.74
2022-09-12T04:19:33.119Z,15.75
2022-09-12T04:22:35.523Z,15.75
2022-09-12T04:25:37.525Z,15.73
2022-09-12T04:28:42.900Z,15.74
2022-09-12T04:31:44.964Z,15.74
2022-09-12T04:34:47.286Z,15.74
2022-09-12T04:37:49.294Z,15.75
2022-09-12T04:40:51.592Z,15.77
2022-09-12T04:43:54.886Z,15.76
2022-09-12T04:46:57.304Z,15.79
2022-09-12T04:49:59.283Z,15.83
2022-09-12T04:53:01.687Z,15.87
2022-09-12T04:56:04.775Z,15.91
2022-09-12T04:59:08.646Z,15.96
2022-09-12T05:02:10.677Z,15.97
2022-09-12T05:05:13.026Z,15.98
2022-09-12T05:08:15.470Z,16.01
2022-09-12T05:11:25.403Z,16.03
2022-09-12T05:14:32.470Z,16.06
2022-09-12T05:17:35.887Z,16.11
2022-09-12T05:20:38.019Z,16.13
2022-09-12T05:23:40.620Z,16.18
2022-09-12T05:26:42.688Z,16.23
2022-09-12T05:29:47.359Z,16.25
2022-09-12T05:32:49.749Z,16.30
2022-09-12T05:35:52.822Z,16.34
2022-09-12T05:38:54.844Z,16.40
2022-09-12T05:41:57.123Z,16.44
2022-09-12T05:44:59.158Z,16.50
2022-09-12T05:48:02.740Z,16.56
2022-09-12T05:54:14.343Z,16.68
2022-09-12T05:57:16.331Z,16.73
2022-09-12T06:00:20.666Z,16.80
2022-09-12T06:03:22.953Z,16.88
2022-09-12T06:06:25.190Z,16.92
2022-09-12T06:09:28.091Z,16.97
2022-09-12T06:12:30.306Z,17.04
2022-09-12T06:15:33.064Z,17.14
2022-09-12T06:18:35.806Z,17.23
2022-09-12T06:21:39.380Z,17.32
2022-09-12T06:24:41.453Z,17.42
2022-09-12T06:27:43.930Z,17.51
2022-09-12T06:30:46.019Z,17.57
2022-09-12T06:33:49.568Z,17.67
2022-09-12T06:36:51.835Z,17.79
2022-09-12T06:39:54.291Z,17.96
2022-09-12T06:42:56.322Z,18.09
2022-09-12T06:46:05.825Z,18.21
2022-09-12T06:49:08.184Z,18.44
2022-09-12T06:52:10.452Z,18.55
2022-09-12T06:55:16.218Z,18.73
2022-09-12T06:58:21.216Z,19.01
2022-09-12T07:03:15.633Z,20.13
2022-09-12T07:06:19.620Z,20.13
2022-09-12T07:09:21.704Z,19.69
2022-09-12T07:12:24.053Z,19.89
2022-09-12T07:15:26.871Z,20.09
2022-09-12T07:18:29.892Z,20.39
2022-09-12T07:21:34.057Z,20.69
2022-09-12T07:24:37.491Z,20.93
2022-09-12T07:27:39.689Z,21.39
2022-09-12T07:30:41.953Z,21.77
2022-09-12T07:33:44.054Z,22.15
2022-09-12T07:36:46.394Z,22.60
2022-09-12T07:39:48.471Z,23.14
2022-09-12T07:42:50.814Z,23.33
2022-09-12T07:45:56.541Z,23.24
2022-09-12T07:48:59.923Z,23.65
2022-09-12T07:52:02.067Z,24.37
2022-09-12T07:55:04.489Z,24.57
2022-09-12T07:58:06.496Z,24.79
2022-09-12T08:01:10.528Z,24.94
2022-09-12T08:04:12.843Z,25.23
2022-09-12T08:07:14.982Z,25.54
2022-09-12T08:10:17.328Z,25.69
2022-09-12T08:13:19.312Z,26.07
2022-09-12T08:16:22.094Z,26.41
2022-09-12T08:19:24.105Z,26.59
2022-09-12T08:22:26.443Z,27.13
2022-09-12T08:25:28.717Z,27.56
2022-09-12T08:28:31.761Z,27.99
2022-09-12T08:31:37.096Z,28.28
2022-09-12T08:34:39.567Z,28.28
2022-09-12T08:37:41.602Z,28.42
2022-09-12T08:40:51.069Z,28.40
2022-09-12T08:43:57.650Z,28.45
2022-09-12T08:47:08.763Z,28.57
2022-09-12T08:50:11.640Z,28.78
2022-09-12T08:53:17.068Z,28.93
2022-09-12T08:56:19.325Z,29.04
2022-09-12T08:59:21.614Z,29.16
2022-09-12T09:02:26.885Z,29.48
2022-09-12T09:05:48.030Z,29.79
2022-09-12T09:09:03.153Z,29.93
2022-09-12T09:12:13.289Z,29.87
2022-09-12T09:15:25.020Z,30.14
2022-09-12T09:18:30.196Z,30.28
2022-09-12T09:21:35.094Z,30.71
2022-09-12T09:25:00.463Z,30.94
2022-09-12T09:28:07.064Z,30.92
2022-09-12T09:31:14.378Z,31.24
2022-09-12T09:34:21.726Z,31.40
2022-09-12T09:37:38.893Z,31.26
2022-09-12T09:41:03.672Z,31.27
2022-09-12T09:47:12.977Z,32.19
2022-09-12T09:50:17.020Z,32.15
2022-09-12T09:53:35.014Z,32.64
2022-09-12T09:56:40.442Z,32.35
2022-09-12T09:59:42.458Z,31.81
2022-09-12T10:02:58.894Z,30.71
2022-09-12T10:06:21.519Z,30.74
2022-09-12T10:09:25.775Z,31.18
2022-09-12T10:12:28.656Z,30.22
2022-09-12T10:15:30.821Z,30.69
2022-09-12T10:18:41.944Z,30.73
2022-09-12T10:22:03.846Z,30.11
2022-09-12T10:25:11.239Z,29.25
2022-09-12T10:28:21.713Z,28.36
2022-09-12T10:31:39.061Z,27.44
2022-09-12T10:34:45.092Z,26.83
2022-09-12T10:37:52.353Z,26.32
2022-09-12T10:41:03.633Z,26.02
2022-09-12T10:44:07.853Z,25.77
2022-09-12T10:47:20.520Z,25.57
2022-09-12T10:50:35.719Z,25.40
2022-09-12T10:53:43.802Z,25.27
2022-09-12T10:56:52.499Z,25.04
2022-09-12T11:00:10.984Z,25.00
2022-09-12T11:03:22.263Z,25.44
2022-09-12T11:06:32.369Z,25.70
2022-09-12T11:09:40.591Z,25.78
2022-09-12T11:12:57.432Z,25.64
2022-09-12T11:15:59.824Z,25.57
2022-09-12T11:19:20.851Z,25.33
2022-09-12T11:22:35.305Z,25.25
2022-09-12T11:25:51.572Z,25.14
2022-09-12T11:29:00.171Z,24.84
2022-09-12T11:32:02.148Z,24.66
2022-09-12T11:35:24.464Z,24.68
2022-09-12T11:38:26.417Z,25.02
2022-09-12T11:41:37.114Z,25.83
2022-09-12T11:44:42.442Z,26.33
2022-09-12T11:47:46.785Z,26.34
2022-09-12T11:50:48.908Z,26.15
2022-09-12T11:54:04.260Z,25.77
2022-09-12T11:57:18.424Z,25.48
2022-09-12T12:00:34.120Z,25.24
2022-09-12T12:03:41.866Z,25.08
2022-09-12T12:06:57.819Z,24.54
2022-09-12T12:10:00.415Z,24.21
2022-09-12T12:13:13.267Z,23.89
2022-09-12T12:16:36.694Z,23.69
2022-09-12T12:19:38.819Z,23.59
2022-09-12T12:22:50.873Z,23.57
2022-09-12T12:25:54.407Z,23.83
2022-09-12T12:28:58.120Z,23.93
2022-09-12T12:32:03.513Z,24.01
2022-09-12T12:35:37.492Z,24.04
2022-09-12T12:38:41.159Z,24.09
2022-09-12T12:41:44.064Z,24.30
2022-09-12T12:44:47.258Z,24.38
2022-09-12T12:47:54.320Z,24.58
2022-09-12T12:51:15.446Z,24.53
2022-09-12T12:54:28.427Z,24.54
2022-09-12T12:57:39.436Z,24.63
2022-09-12T13:00:41.892Z,25.06
2022-09-12T13:03:45.558Z,25.35
2022-09-12T13:06:57.091Z,25.29
2022-09-12T13:10:00.156Z,25.14
2022-09-12T13:13:05.262Z,24.90
2022-09-12T13:16:10.036Z,24.81
2022-09-12T13:19:19.278Z,24.81
2022-09-12T13:22:22.538Z,24.82
2022-09-12T13:25:35.181Z,25.02
2022-09-12T13:28:37.218Z,25.36
2022-09-12T13:31:43.147Z,25.41
2022-09-12T13:34:51.675Z,25.61
2022-09-12T13:38:07.385Z,25.69
2022-09-12T13:41:12.277Z,25.32
2022-09-12T13:44:18.061Z,25.02
2022-09-12T13:47:32.471Z,24.72
2022-09-12T13:50:41.216Z,24.47
2022-09-12T13:53:44.737Z,24.20
2022-09-12T13:56:48.525Z,23.98
2022-09-12T13:59:54.991Z,24.03
2022-09-12T14:03:15.756Z,24.02
2022-09-12T14:06:18.995Z,24.16
2022-09-12T14:09:24.941Z,24.32
2022-09-12T14:12:34.655Z,24.28
2022-09-12T14:15:37.603Z,24.33
2022-09-12T14:18:40.203Z,24.37
2022-09-12T14:21:42.328Z,24.50
2022-09-12T14:24:51.557Z,24.42
2022-09-12T14:27:55.125Z,24.44
2022-09-12T14:31:02.168Z,24.38
2022-09-12T14:34:17.701Z,24.25
2022-09-12T14:37:20.091Z,24.28
2022-09-12T14:40:23.630Z,24.22
2022-09-12T14:43:30.671Z,24.00
2022-09-12T14:46:32.703Z,23.93
2022-09-12T14:49:36.658Z,23.90
2022-09-12T14:52:40.120Z,23.82
2022-09-12T14:55:44.703Z,23.76
2022-09-12T14:58:46.699Z,23.73
2022-09-12T15:01:49.005Z,23.64
2022-09-12T15:04:52.881Z,23.61
2022-09-12T15:07:57.114Z,23.51
2022-09-12T15:10:59.561Z,23.39
2022-09-12T15:14:14.427Z,23.28
2022-09-12T15:17:16.662Z,23.11
2022-09-12T15:20:18.946Z,22.94
2022-09-12T15:23:27.166Z,22.78
2022-09-12T15:26:31.075Z,22.67
2022-09-12T15:29:33.043Z,22.62
2022-09-12T15:32:35.293Z,22.47
2022-09-12T15:35:37.525Z,22.44
2022-09-12T15:38:39.806Z,22.31
2022-09-12T15:41:41.941Z,22.20
2022-09-12T15:44:44.207Z,22.10
2022-09-12T15:47:46.576Z,22.02
2022-09-12T15:50:48.952Z,21.92
2022-09-12T15:53:51.591Z,21.86
2022-09-12T15:56:54.056Z,21.78
2022-09-12T15:59:56.147Z,21.70
2022-09-12T16:02:58.521Z,21.64
2022-09-12T16:06:02.064Z,21.57
2022-09-12T16:09:04.144Z,21.54
2022-09-12T16:12:06.778Z,21.42
2022-09-12T16:15:11.870Z,21.37
2022-09-12T16:18:14.311Z,21.31
2022-09-12T16:21:16.307Z,21.27
2022-09-12T16:24:18.652Z,21.25
2022-09-12T16:27:20.619Z,21.20
2022-09-12T16:30:22.909Z,21.15
2022-09-12T16:33:25.952Z,21.09
2022-09-12T16:36:28.381Z,21.03
2022-09-12T16:39:30.410Z,20.99
2022-09-12T16:42:32.713Z,20.94
2022-09-12T16:45:34.683Z,20.88
2022-09-12T16:48:37.978Z,20.83
2022-09-12T16:51:43.856Z,20.77
2022-09-12T16:54:46.661Z,20.75
2022-09-12T16:57:49.453Z,20.68
2022-09-12T17:01:02.031Z,20.60
2022-09-12T17:04:04.411Z,20.52
2022-09-12T17:07:06.807Z,20.45
2022-09-12T17:10:09.101Z,20.40
2022-09-12T17:13:11.700Z,20.33
2022-09-12T17:16:14.624Z,20.28
2022-09-12T17:19:19.057Z,20.20
2022-09-12T17:22:21.081Z,20.15
2022-09-12T17:25:23.356Z,20.09
2022-09-12T17:28:25.505Z,20.04
2022-09-12T17:31:28.134Z,20.00
2022-09-12T17:34:30.270Z,19.93
2022-09-12T17:37:33.315Z,19.89
2022-09-12T17:40:58.209Z,19.84
2022-09-12T17:43:58.893Z,19.79
2022-09-12T17:47:00.931Z,19.75
2022-09-12T17:50:27.739Z,19.71
2022-09-12T17:53:25.962Z,19.67
2022-09-12T17:56:29.298Z,19.63
2022-09-12T17:59:31.374Z,19.61
2022-09-12T18:02:34.242Z,19.56
2022-09-12T18:05:36.569Z,19.53
2022-09-12T18:08:38.569Z,19.48
2022-09-12T18:11:41.111Z,19.47
2022-09-12T18:14:43.249Z,19.40
2022-09-12T18:17:45.684Z,19.37
2022-09-12T18:20:51.529Z,19.36
2022-09-12T18:23:55.055Z,19.34
2022-09-12T18:26:57.115Z,19.30
2022-09-12T18:30:20.177Z,19.25
2022-09-12T18:33:24.079Z,19.24
2022-09-12T18:36:26.985Z,19.21
2022-09-12T18:39:29.002Z,19.19
2022-09-12T18:42:31.324Z,19.17
2022-09-12T18:45:34.015Z,19.13
2022-09-12T18:48:36.697Z,19.12
2022-09-12T18:51:40.209Z,19.11
2022-09-12T18:54:42.680Z,19.06
2022-09-12T18:57:44.808Z,19.01
2022-09-12T19:00:49.164Z,18.96
2022-09-12T19:03:52.368Z,18.92
2022-09-12T19:06:54.712Z,18.86
2022-09-12T19:09:56.757Z,18.83
2022-09-12T19:12:59.221Z,18.79
2022-09-12T19:16:01.639Z,18.72
2022-09-12T19:19:04.123Z,18.70
2022-09-12T19:22:06.263Z,18.64
2022-09-12T19:25:08.708Z,18.61
2022-09-12T19:28:10.760Z,18.57
2022-09-12T19:31:14.575Z,18.52
2022-09-12T19:34:17.211Z,18.48
2022-09-12T19:37:19.622Z,18.45
2022-09-12T19:40:21.676Z,18.42
2022-09-12T19:43:24.384Z,18.37
2022-09-12T19:46:27.080Z,18.34
2022-09-12T19:49:29.421Z,18.28
2022-09-12T19:52:31.422Z,18.26
2022-09-12T19:55:37.106Z,18.28
2022-09-12T19:58:40.458Z,18.32
2022-09-12T20:01:42.780Z,18.33
2022-09-12T20:04:45.425Z,18.33
2022-09-12T20:07:47.460Z,18.32
2022-09-12T20:10:52.801Z,18.32
2022-09-12T20:13:57.159Z,18.30
2022-09-12T20:16:59.457Z,18.28
2022-09-12T20:20:02.245Z,18.24
2022-09-12T20:23:05.379Z,18.22
2022-09-12T20:26:08.674Z,18.18
2022-09-12T20:29:11.197Z,18.15
2022-09-12T20:32:13.286Z,18.07
2022-09-12T20:35:15.941Z,18.00
2022-09-12T20:38:17.954Z,17.96
2022-09-12T20:41:20.763Z,17.90
2022-09-12T20:44:22.989Z,17.83
2022-09-12T20:47:25.252Z,17.78
2022-09-12T20:50:27.430Z,17.73
2022-09-12T20:53:34.703Z,17.69
2022-09-12T20:56:37.599Z,17.64
2022-09-12T20:59:42.506Z,17.58
2022-09-12T21:02:44.928Z,17.53
2022-09-12T21:05:47.287Z,17.51
2022-09-12T21:08:50.007Z,17.47
2022-09-12T21:11:52.368Z,17.43
2022-09-12T21:14:54.375Z,17.38
2022-09-12T21:17:56.655Z,17.34
2022-09-12T21:20:58.964Z,17.29
2022-09-12T21:24:02.799Z,17.28
2022-09-12T21:27:05.338Z,17.26
2022-09-12T21:30:08.664Z,17.25
2022-09-12T21:33:10.816Z,17.22
2022-09-12T21:36:13.090Z,17.19
2022-09-12T21:39:15.059Z,17.17
2022-09-12T21:42:17.342Z,17.14
2022-09-12T21:45:20.228Z,17.15
2022-09-12T21:48:22.557Z,17.15
2022-09-12T21:51:24.705Z,17.12
2022-09-12T21:54:27.174Z,17.10
2022-09-12T21:57:29.283Z,17.09
2022-09-12T22:00:31.640Z,17.04
2022-09-12T22:03:34.239Z,17.00
2022-09-12T22:06:36.515Z,16.95
2022-09-12T22:09:38.759Z,16.92
2022-09-12T22:12:45.334Z,16.87
2022-09-12T22:15:52.022Z,16.81
2022-09-12T22:18:54.352Z,16.78
2022-09-12T22:22:15.402Z,16.75
2022-09-12T22:25:17.397Z,16.72
2022-09-12T22:28:20.790Z,16.71
2022-09-12T22:31:23.189Z,16.67
2022-09-12T22:34:25.962Z,16.63
2022-09-12T22:37:27.950Z,16.59
2022-09-12T22:40:30.332Z,16.58
2022-09-12T22:43:33.474Z,16.56
2022-09-12T23:02:17.255Z,16.40
2022-09-12T23:05:19.579Z,16.31
2022-09-12T23:08:21.570Z,16.29
2022-09-12T23:11:23.882Z,16.24
2022-09-12T23:14:26.093Z,16.21
2022-09-12T23:17:28.359Z,16.16
2022-09-12T23:20:30.596Z,16.15
2022-09-12T23:23:33.089Z,16.15
2022-09-12T23:26:35.131Z,16.11
2022-09-12T23:29:37.387Z,16.06
2022-09-12T23:32:39.437Z,16.05
2022-09-12T23:35:41.711Z,16.03
2022-09-12T23:38:44.463Z,16.01
2022-09-12T23:41:46.750Z,15.98
2022-09-12T23:44:48.712Z,15.98
2022-09-12T23:47:50.966Z,15.96
2022-09-12T23:50:53.012Z,15.90
2022-09-12T23:53:55.253Z,15.88
2022-09-12T23:56:57.275Z,15.87
2022-09-12T23:59:59.515Z,15.84
